createdAt,value
2023-02-19T00:02:02.262Z,50.75
2023-02-19T00:04:32.597Z,52.25
2023-02-19T00:07:01.198Z,49.25
2023-02-19T00:09:30.332Z,49.00
2023-02-19T00:11:58.884Z,48.75
2023-02-19T00:14:27.795Z,49.00
2023-02-19T00:16:56.366Z,48.25
2023-02-19T00:19:25.433Z,49.00
2023-02-19T00:21:55.865Z,49.00
2023-02-19T00:24:24.752Z,47.50
2023-02-19T00:26:53.296Z,45.25
2023-02-19T00:29:22.740Z,41.75
2023-02-19T00:31:52.163Z,46.00
2023-02-19T00:34:21.245Z,46.50
2023-02-19T00:36:49.949Z,46.00
2023-02-19T00:39:21.518Z,43.50
2023-02-19T00:41:50.244Z,42.75
2023-02-19T00:44:19.681Z,45.00
2023-02-19T00:46:50.022Z,49.00
2023-02-19T00:49:21.338Z,43.75
2023-02-19T00:51:51.226Z,42.25
2023-02-19T00:54:22.692Z,44.50
2023-02-19T00:56:51.700Z,45.00
2023-02-19T00:59:20.599Z,43.00
2023-02-19T01:01:49.796Z,44.00
2023-02-19T01:04:19.609Z,44.75
2023-02-19T01:06:49.183Z,43.50
2023-02-19T01:09:18.128Z,45.00
2023-02-19T01:11:48.434Z,45.00
2023-02-19T01:14:17.293Z,45.00
2023-02-19T01:16:45.928Z,47.50
2023-02-19T01:19:14.843Z,46.50
2023-02-19T01:21:43.405Z,47.75
2023-02-19T01:24:12.526Z,51.00
2023-02-19T01:26:41.648Z,48.75
2023-02-19T01:29:12.051Z,49.25
2023-02-19T01:31:42.410Z,49.00
2023-02-19T01:34:12.672Z,47.50
2023-02-19T01:36:41.717Z,47.75
2023-02-19T01:39:12.478Z,49.50
2023-02-19T01:41:42.831Z,46.25
2023-02-19T01:44:44.628Z,47.25
2023-02-19T01:47:17.617Z,45.50
2023-02-19T01:49:51.355Z,49.50
2023-02-19T01:52:23.611Z,50.00
2023-02-19T01:54:53.216Z,48.00
2023-02-19T01:57:25.523Z,45.00
2023-02-19T02:00:07.542Z,44.50
2023-02-19T02:02:49.634Z,49.25
2023-02-19T02:05:26.420Z,47.75
2023-02-19T02:08:12.864Z,47.25
2023-02-19T02:10:41.592Z,45.00
2023-02-19T02:13:10.810Z,36.50
2023-02-19T02:15:49.858Z,45.25
2023-02-19T02:18:32.566Z,48.75
2023-02-19T02:21:20.184Z,46.50
2023-02-19T02:24:09.325Z,47.50
2023-02-19T02:26:53.261Z,44.50
2023-02-19T02:30:14.090Z,42.75
2023-02-19T02:32:53.531Z,43.00
2023-02-19T02:35:27.922Z,45.75
2023-02-19T02:38:01.157Z,44.25
2023-02-19T02:40:30.562Z,43.75
2023-02-19T02:43:01.993Z,40.25
2023-02-19T02:45:36.432Z,40.75
2023-02-19T02:48:22.927Z,41.25
2023-02-19T02:50:56.290Z,37.75
2023-02-19T02:53:49.262Z,38.25
2023-02-19T02:56:20.810Z,37.25
2023-02-19T02:58:51.988Z,39.50
2023-02-19T03:01:43.671Z,34.75
2023-02-19T03:04:19.349Z,38.25
2023-02-19T03:06:50.625Z,28.00
2023-02-19T03:09:30.318Z,38.00
2023-02-19T03:12:22.666Z,35.00
2023-02-19T03:15:12.614Z,35.50
2023-02-19T03:18:03.147Z,38.00
2023-02-19T03:20:37.926Z,38.25
2023-02-19T03:23:10.347Z,32.75
2023-02-19T03:25:58.869Z,37.00
2023-02-19T03:28:57.993Z,37.25
2023-02-19T03:31:31.079Z,35.00
2023-02-19T03:34:06.648Z,37.25
2023-02-19T03:36:42.237Z,32.00
2023-02-19T03:39:15.658Z,34.00
2023-02-19T03:41:52.869Z,36.00
2023-02-19T03:44:32.589Z,37.25
2023-02-19T03:47:05.836Z,36.00
2023-02-19T03:49:49.028Z,34.00
2023-02-19T03:52:26.713Z,34.75
2023-02-19T03:55:04.533Z,30.20
2023-02-19T03:57:46.681Z,34.60
2023-02-19T04:00:19.372Z,34.40
2023-02-19T04:02:55.383Z,35.50
2023-02-19T04:05:28.250Z,32.80
2023-02-19T04:08:01.749Z,29.00
2023-02-19T04:10:36.811Z,34.20
2023-02-19T04:13:12.763Z,31.25
2023-02-19T04:15:45.241Z,32.75
2023-02-19T04:18:18.136Z,34.20
2023-02-19T04:20:49.525Z,36.25
2023-02-19T04:23:24.319Z,34.25
2023-02-19T04:25:57.749Z,40.25
2023-02-19T04:28:26.331Z,37.00
2023-02-19T04:30:55.363Z,37.75
2023-02-19T04:33:24.001Z,38.00
2023-02-19T04:35:53.154Z,37.50
2023-02-19T04:38:23.174Z,35.00
2023-02-19T04:40:52.523Z,35.50
2023-02-19T04:43:21.559Z,41.00
2023-02-19T04:45:50.534Z,34.25
2023-02-19T04:48:19.558Z,36.50
2023-02-19T04:50:48.481Z,38.50
2023-02-19T04:53:16.994Z,37.50
2023-02-19T04:55:48.178Z,38.75
2023-02-19T04:58:16.779Z,38.00
2023-02-19T05:00:45.648Z,38.50
2023-02-19T05:03:14.341Z,39.00
2023-02-19T05:05:43.229Z,40.00
2023-02-19T05:08:11.821Z,39.00
2023-02-19T05:10:40.640Z,35.50
2023-02-19T05:13:10.681Z,39.00
2023-02-19T05:15:39.552Z,37.75
2023-02-19T05:18:08.097Z,36.00
2023-02-19T05:20:37.876Z,37.75
2023-02-19T05:23:06.356Z,35.00
2023-02-19T05:25:35.221Z,38.00
2023-02-19T05:30:57.951Z,38.00
2023-02-19T05:33:27.592Z,38.25
2023-02-19T05:35:57.249Z,37.25
2023-02-19T05:38:26.693Z,37.00
2023-02-19T05:40:55.397Z,34.00
2023-02-19T05:43:24.236Z,35.00
2023-02-19T05:45:52.830Z,35.25
2023-02-19T05:48:23.163Z,44.50
2023-02-19T05:50:51.699Z,42.25
2023-02-19T05:53:20.673Z,41.00
2023-02-19T05:55:49.336Z,36.75
2023-02-19T05:58:18.297Z,31.75
2023-02-19T06:00:46.892Z,31.00
2023-02-19T06:03:15.786Z,35.50
2023-02-19T06:05:45.707Z,34.00
2023-02-19T06:08:15.963Z,34.75
2023-02-19T06:10:45.153Z,32.50
2023-02-19T06:13:14.430Z,38.50
2023-02-19T06:15:43.608Z,38.75
2023-02-19T06:18:12.675Z,36.75
2023-02-19T06:20:41.334Z,38.00
2023-02-19T06:23:11.669Z,39.50
2023-02-19T06:25:40.232Z,36.75
2023-02-19T06:28:10.101Z,39.00
2023-02-19T06:30:38.647Z,41.25
2023-02-19T06:33:07.485Z,44.25
2023-02-19T06:35:35.989Z,36.25
2023-02-19T06:38:04.850Z,50.00
2023-02-19T06:40:34.795Z,46.75
2023-02-19T06:43:03.876Z,39.25
2023-02-19T06:45:32.477Z,31.75
2023-02-19T06:48:01.703Z,35.00
2023-02-19T06:50:30.309Z,35.00
2023-02-19T06:52:59.343Z,39.75
2023-02-19T06:55:28.110Z,44.50
2023-02-19T06:57:59.001Z,43.25
2023-02-19T07:00:27.536Z,39.75
2023-02-19T07:02:57.714Z,43.00
2023-02-19T07:05:26.401Z,36.00
2023-02-19T07:07:55.293Z,33.40
2023-02-19T07:10:24.060Z,38.25
2023-02-19T07:12:53.192Z,43.25
2023-02-19T07:15:23.176Z,35.50
2023-02-19T07:17:51.973Z,37.00
2023-02-19T07:20:20.913Z,31.50
2023-02-19T07:22:49.969Z,35.25
2023-02-19T07:25:18.729Z,35.00
2023-02-19T07:27:48.244Z,34.20
2023-02-19T07:30:16.926Z,33.75
2023-02-19T07:32:47.189Z,34.25
2023-02-19T07:35:16.032Z,34.40
2023-02-19T07:37:44.875Z,36.00
2023-02-19T07:40:13.457Z,33.60
2023-02-19T07:42:42.406Z,32.60
2023-02-19T07:45:11.240Z,31.50
2023-02-19T07:47:40.065Z,28.20
2023-02-19T07:50:12.974Z,45.75
2023-02-19T07:52:43.082Z,34.60
2023-02-19T07:55:11.760Z,31.20
2023-02-19T07:57:40.639Z,30.80
2023-02-19T08:00:10.061Z,32.60
2023-02-19T08:02:59.024Z,31.00
2023-02-19T08:05:29.387Z,27.40
2023-02-19T08:07:59.767Z,29.80
2023-02-19T08:10:46.159Z,23.40
2023-02-19T08:13:26.308Z,39.00
2023-02-19T08:16:04.640Z,31.80
2023-02-19T08:18:43.642Z,24.20
2023-02-19T08:21:13.794Z,26.40
2023-02-19T08:23:42.719Z,24.00
2023-02-19T08:26:11.345Z,29.00
2023-02-19T08:28:40.659Z,23.00
2023-02-19T08:31:11.484Z,23.40
2023-02-19T08:33:40.847Z,21.40
2023-02-19T08:36:10.907Z,27.60
2023-02-19T08:38:41.316Z,21.80
2023-02-19T08:41:12.407Z,22.40
2023-02-19T08:43:42.273Z,23.20
2023-02-19T08:46:12.574Z,21.60
2023-02-19T08:48:41.580Z,22.20
2023-02-19T08:51:12.290Z,23.20
2023-02-19T08:53:43.131Z,24.20
2023-02-19T08:56:14.340Z,32.25
2023-02-19T08:58:44.402Z,36.25
2023-02-19T09:01:15.464Z,25.20
2023-02-19T09:03:44.599Z,22.00
2023-02-19T09:06:16.859Z,27.00
2023-02-19T09:08:47.258Z,26.00
2023-02-19T09:11:16.330Z,28.80
2023-02-19T09:13:45.720Z,26.60
2023-02-19T09:16:14.418Z,24.40
2023-02-19T09:18:45.821Z,26.20
2023-02-19T09:21:14.483Z,31.40
2023-02-19T09:23:43.344Z,30.40
2023-02-19T09:26:14.100Z,33.00
2023-02-19T09:28:43.451Z,28.20
2023-02-19T09:31:14.562Z,33.40
2023-02-19T09:33:44.811Z,35.00
2023-02-19T09:36:14.132Z,33.50
2023-02-19T09:38:43.907Z,33.50
2023-02-19T09:41:23.635Z,30.60
2023-02-19T09:43:53.261Z,31.20
2023-02-19T09:46:31.900Z,32.75
2023-02-19T09:49:06.388Z,34.00
2023-02-19T09:51:37.788Z,24.40
2023-02-19T09:54:13.747Z,31.60
2023-02-19T09:56:43.833Z,33.75
2023-02-19T09:59:21.445Z,35.00
2023-02-19T10:01:58.799Z,30.40
2023-02-19T10:04:28.408Z,34.00
2023-02-19T10:07:03.457Z,38.00
2023-02-19T10:09:32.627Z,33.25
2023-02-19T10:12:03.077Z,35.50
2023-02-19T10:14:37.485Z,34.00
2023-02-19T10:17:08.404Z,35.00
2023-02-19T10:19:37.921Z,46.00
2023-02-19T10:22:06.834Z,37.25
2023-02-19T10:24:38.331Z,17.00
2023-02-19T10:27:13.304Z,33.50
2023-02-19T10:29:44.235Z,38.75
2023-02-19T10:32:14.766Z,36.75
2023-02-19T10:34:43.634Z,33.00
2023-02-19T10:37:16.811Z,32.25
2023-02-19T10:39:48.140Z,31.25
2023-02-19T10:42:21.004Z,35.25
2023-02-19T10:44:54.983Z,30.60
2023-02-19T10:47:27.047Z,29.20
2023-02-19T10:50:00.796Z,29.80
2023-02-19T10:52:34.466Z,28.00
2023-02-19T10:55:18.179Z,25.20
2023-02-19T10:57:50.437Z,28.20
2023-02-19T11:00:27.048Z,26.60
2023-02-19T11:03:15.223Z,26.00
2023-02-19T11:05:56.688Z,27.20
2023-02-19T11:08:25.761Z,28.00
2023-02-19T11:10:54.763Z,26.00
2023-02-19T11:13:32.313Z,28.40
2023-02-19T11:16:02.124Z,24.60
2023-02-19T11:18:33.039Z,24.60
2023-02-19T11:21:04.676Z,32.60
2023-02-19T11:23:37.260Z,33.00
2023-02-19T11:26:17.762Z,28.20
2023-02-19T11:28:56.585Z,23.00
2023-02-19T11:31:28.046Z,25.20
2023-02-19T11:33:59.413Z,25.20
2023-02-19T11:36:34.196Z,16.80
2023-02-19T11:39:20.825Z,22.00
2023-02-19T11:42:16.438Z,22.20
2023-02-19T11:45:03.961Z,22.00
2023-02-19T11:47:47.287Z,23.40
2023-02-19T11:50:24.793Z,22.40
2023-02-19T11:53:04.522Z,26.40
2023-02-19T11:55:44.160Z,15.60
2023-02-19T11:58:36.140Z,17.80
2023-02-19T12:01:15.675Z,18.20
2023-02-19T12:04:29.220Z,18.60
2023-02-19T12:07:11.174Z,19.20
2023-02-19T12:09:52.688Z,20.00
2023-02-19T12:12:37.720Z,19.60
2023-02-19T12:15:23.008Z,20.00
2023-02-19T12:18:24.787Z,14.40
2023-02-19T12:21:03.146Z,23.80
2023-02-19T12:23:50.028Z,25.00
2023-02-19T12:26:26.056Z,22.20
2023-02-19T12:29:22.009Z,18.80
2023-02-19T12:32:33.545Z,18.00
2023-02-19T12:35:32.768Z,18.80
2023-02-19T12:38:16.156Z,18.60
2023-02-19T12:40:59.471Z,21.60
2023-02-19T12:43:31.096Z,21.60
2023-02-19T12:46:04.203Z,18.40
2023-02-19T12:48:40.311Z,19.20
2023-02-19T12:51:18.672Z,19.00
2023-02-19T12:53:53.926Z,18.20
2023-02-19T12:56:26.546Z,19.60
2023-02-19T12:59:00.168Z,22.00
2023-02-19T13:01:33.034Z,18.60
2023-02-19T13:04:19.531Z,17.60
2023-02-19T13:06:55.164Z,23.80
2023-02-19T13:09:34.063Z,18.60
2023-02-19T13:12:08.159Z,21.00
2023-02-19T13:14:41.992Z,23.00
2023-02-19T13:17:22.273Z,22.20
2023-02-19T13:19:56.710Z,19.00
2023-02-19T13:22:50.151Z,20.00
2023-02-19T13:25:22.377Z,18.60
2023-02-19T13:28:06.397Z,20.40
2023-02-19T13:31:02.551Z,24.60
2023-02-19T13:33:59.812Z,20.40
2023-02-19T13:36:31.228Z,19.60
2023-02-19T13:39:01.169Z,15.20
2023-02-19T13:41:34.927Z,22.80
2023-02-19T13:44:06.234Z,27.80
2023-02-19T13:46:39.310Z,19.20
2023-02-19T13:49:43.551Z,22.60
2023-02-19T13:52:43.352Z,21.20
2023-02-19T13:55:49.724Z,17.60
2023-02-19T13:58:52.685Z,20.80
2023-02-19T14:02:12.910Z,25.20
2023-02-19T14:04:47.485Z,25.60
2023-02-19T14:07:38.549Z,19.20
2023-02-19T14:10:14.199Z,24.40
2023-02-19T14:12:42.991Z,25.80
2023-02-19T14:15:44.334Z,20.80
2023-02-19T14:18:46.313Z,23.60
2023-02-19T14:21:25.610Z,18.60
2023-02-19T14:23:57.090Z,20.20
2023-02-19T14:26:27.911Z,19.60
2023-02-19T14:28:57.068Z,22.40
2023-02-19T14:31:30.222Z,21.40
2023-02-19T14:34:04.335Z,20.20
2023-02-19T14:37:10.217Z,19.40
2023-02-19T14:39:40.398Z,17.60
2023-02-19T14:42:17.827Z,20.20
2023-02-19T14:44:51.450Z,22.40
2023-02-19T14:47:24.134Z,24.20
2023-02-19T14:49:59.829Z,18.60
2023-02-19T14:52:34.040Z,18.40
2023-02-19T14:55:10.121Z,18.80
2023-02-19T14:57:42.210Z,17.80
2023-02-19T15:00:25.049Z,19.60
2023-02-19T15:02:57.597Z,20.80
2023-02-19T15:05:29.645Z,21.40
2023-02-19T15:08:02.609Z,20.20
2023-02-19T15:10:34.610Z,24.60
2023-02-19T15:13:06.965Z,19.00
2023-02-19T15:15:40.173Z,22.20
2023-02-19T15:18:09.370Z,18.80
2023-02-19T15:20:39.836Z,20.40
2023-02-19T15:23:09.479Z,20.60
2023-02-19T15:25:39.883Z,25.20
2023-02-19T15:28:29.674Z,26.40
2023-02-19T15:31:16.343Z,24.20
2023-02-19T15:33:52.752Z,25.40
2023-02-19T15:36:35.125Z,27.40
2023-02-19T15:39:04.308Z,27.60
2023-02-19T15:41:35.952Z,27.40
2023-02-19T15:44:21.529Z,28.40
2023-02-19T15:46:51.007Z,25.60
2023-02-19T15:49:24.218Z,35.00
2023-02-19T15:51:59.177Z,32.20
2023-02-19T15:54:32.122Z,29.25
2023-02-19T15:57:07.914Z,22.80
2023-02-19T15:59:42.657Z,32.00
2023-02-19T16:02:14.585Z,29.60
2023-02-19T16:04:45.616Z,34.50
2023-02-19T16:07:26.448Z,30.00
2023-02-19T16:10:18.686Z,34.50
2023-02-19T16:12:56.549Z,35.75
2023-02-19T16:15:25.844Z,33.50
2023-02-19T16:17:54.906Z,30.00
2023-02-19T16:20:27.481Z,25.80
2023-02-19T16:23:02.698Z,29.75
2023-02-19T16:25:38.576Z,25.60
2023-02-19T16:28:13.550Z,27.00
2023-02-19T16:30:43.177Z,27.75
2023-02-19T16:33:38.867Z,24.00
2023-02-19T16:36:19.730Z,27.20
2023-02-19T16:39:14.260Z,28.50
2023-02-19T16:42:14.669Z,34.75
2023-02-19T16:44:44.132Z,32.00
2023-02-19T16:47:29.574Z,30.50
2023-02-19T16:50:00.525Z,33.00
2023-02-19T16:52:30.292Z,33.50
2023-02-19T16:55:00.343Z,32.75
2023-02-19T16:57:29.545Z,35.25
2023-02-19T16:59:58.072Z,28.00
2023-02-19T17:02:27.213Z,28.75
2023-02-19T17:04:55.955Z,25.60
2023-02-19T17:07:26.071Z,27.80
2023-02-19T17:09:54.753Z,34.75
2023-02-19T17:12:25.127Z,29.00
2023-02-19T17:14:53.616Z,31.00
2023-02-19T17:17:22.323Z,26.60
2023-02-19T17:19:50.891Z,35.25
2023-02-19T17:22:19.811Z,34.75
2023-02-19T17:24:48.466Z,28.80
2023-02-19T17:27:17.538Z,31.25
2023-02-19T17:29:47.687Z,32.80
2023-02-19T17:32:16.536Z,36.25
2023-02-19T17:34:49.466Z,37.25
2023-02-19T17:37:18.484Z,35.25
2023-02-19T17:39:47.086Z,30.50
2023-02-19T17:42:16.337Z,33.75
2023-02-19T17:44:46.806Z,35.75
2023-02-19T17:47:17.018Z,33.00
2023-02-19T17:49:45.516Z,36.50
2023-02-19T17:52:17.681Z,34.00
2023-02-19T17:54:46.616Z,34.00
2023-02-19T17:57:15.399Z,36.25
2023-02-19T17:59:44.055Z,35.00
2023-02-19T18:02:13.097Z,34.75
2023-02-19T18:04:43.026Z,35.25
2023-02-19T18:07:11.881Z,37.00
2023-02-19T18:09:41.350Z,34.50
2023-02-19T18:12:10.505Z,34.50
2023-02-19T18:14:38.989Z,37.00
2023-02-19T18:17:08.067Z,36.75
2023-02-19T18:19:36.615Z,36.50
2023-02-19T18:22:06.938Z,36.25
2023-02-19T18:24:35.605Z,36.25
2023-02-19T18:27:04.638Z,34.50
2023-02-19T18:29:35.064Z,37.50
2023-02-19T18:32:04.421Z,33.50
2023-02-19T18:34:33.239Z,36.00
2023-02-19T18:37:02.219Z,33.00
2023-02-19T18:39:32.166Z,38.00
2023-02-19T18:42:02.226Z,36.75
2023-02-19T18:44:30.827Z,31.25
2023-02-19T18:46:59.748Z,35.00
2023-02-19T18:49:29.632Z,36.50
2023-02-19T18:51:59.398Z,46.50
2023-02-19T18:54:28.683Z,59.50
2023-02-19T18:57:00.683Z,36.75
2023-02-19T18:59:29.180Z,37.00
2023-02-19T19:01:58.199Z,36.75
2023-02-19T19:04:26.873Z,34.50
2023-02-19T19:06:55.809Z,38.50
2023-02-19T19:09:24.646Z,36.25
2023-02-19T19:11:53.742Z,36.25
2023-02-19T19:14:23.667Z,38.00
2023-02-19T19:16:52.571Z,36.25
2023-02-19T19:19:21.124Z,39.50
2023-02-19T19:21:53.304Z,37.50
2023-02-19T19:24:23.350Z,38.50
2023-02-19T19:26:53.187Z,34.75
2023-02-19T19:29:23.956Z,39.75
2023-02-19T19:31:53.071Z,34.00
2023-02-19T19:34:21.685Z,36.00
2023-02-19T19:36:51.278Z,31.25
2023-02-19T19:39:19.888Z,38.00
2023-02-19T19:41:54.838Z,37.50
2023-02-19T19:44:25.152Z,77.50
2023-02-19T19:46:55.445Z,34.50
2023-02-19T19:49:24.460Z,34.75
2023-02-19T19:51:53.552Z,38.25
2023-02-19T19:54:22.195Z,37.00
2023-02-19T19:56:51.096Z,37.25
2023-02-19T19:59:19.962Z,32.50
2023-02-19T20:01:51.907Z,36.75
2023-02-19T20:04:21.519Z,38.00
2023-02-19T20:06:51.086Z,33.75
2023-02-19T20:09:20.113Z,35.50
2023-02-19T20:11:51.748Z,35.25
2023-02-19T20:14:22.161Z,7.00
2023-02-19T20:16:52.882Z,37.00
2023-02-19T20:19:21.779Z,36.00
2023-02-19T20:21:52.113Z,37.25
2023-02-19T20:24:24.207Z,37.00
2023-02-19T20:26:58.497Z,36.50
2023-02-19T20:29:27.933Z,34.00
2023-02-19T20:32:00.294Z,37.75
2023-02-19T20:34:29.477Z,34.25
2023-02-19T20:36:58.810Z,36.00
2023-02-19T20:39:29.349Z,37.00
2023-02-19T20:41:59.039Z,37.25
2023-02-19T20:44:29.227Z,35.25
2023-02-19T20:47:00.558Z,36.25
2023-02-19T20:49:31.388Z,34.75
2023-02-19T20:52:02.387Z,35.50
2023-02-19T20:54:32.719Z,34.00
2023-02-19T20:57:04.053Z,35.75
2023-02-19T20:59:35.570Z,32.50
2023-02-19T21:02:08.551Z,34.25
2023-02-19T21:04:39.124Z,36.75
2023-02-19T21:07:08.047Z,34.50
2023-02-19T21:09:36.600Z,33.75
2023-02-19T21:12:05.931Z,34.25
2023-02-19T21:14:34.594Z,37.50
2023-02-19T21:17:03.434Z,36.25
2023-02-19T21:19:33.534Z,34.50
2023-02-19T21:22:02.388Z,33.00
2023-02-19T21:24:32.706Z,31.50
2023-02-19T21:27:01.741Z,32.00
2023-02-19T21:29:30.402Z,20.20
2023-02-19T21:31:59.916Z,22.00
2023-02-19T21:34:30.464Z,14.40
2023-02-19T21:37:01.005Z,10.80
2023-02-19T21:39:31.350Z,15.60
2023-02-19T21:42:00.390Z,12.00
2023-02-19T21:44:29.372Z,7.00
2023-02-19T21:46:58.303Z,5.00
2023-02-19T21:49:27.566Z,3.80
2023-02-19T21:51:56.487Z,5.00
2023-02-19T21:54:26.731Z,2.40
2023-02-19T21:56:55.941Z,3.00
2023-02-19T21:59:24.584Z,2.00
2023-02-19T22:01:53.524Z,3.40
2023-02-19T22:04:24.610Z,2.00
2023-02-19T22:06:56.259Z,1.00
2023-02-19T22:09:26.401Z,1.20
2023-02-19T22:11:55.319Z,1.00
2023-02-19T22:14:23.896Z,1.20
2023-02-19T22:16:52.908Z,1.00
2023-02-19T22:19:21.542Z,1.00
2023-02-19T22:21:50.645Z,2.00
2023-02-19T22:24:21.844Z,1.20
2023-02-19T22:26:56.796Z,3.40
2023-02-19T22:29:25.748Z,5.00
2023-02-19T22:31:54.869Z,2.00
2023-02-19T22:34:23.791Z,2.60
2023-02-19T22:36:52.789Z,2.00
2023-02-19T22:39:23.782Z,2.00
2023-02-19T22:41:54.485Z,2.20
2023-02-19T22:44:23.246Z,1.00
2023-02-19T22:46:54.319Z,1.40
2023-02-19T22:49:24.060Z,3.00
2023-02-19T22:51:56.604Z,5.40
2023-02-19T22:54:27.148Z,5.40
2023-02-19T22:56:57.493Z,7.00
2023-02-19T22:59:26.091Z,3.80
2023-02-19T23:01:55.665Z,10.00
2023-02-19T23:04:26.364Z,5.40
2023-02-19T23:06:55.436Z,8.80
2023-02-19T23:09:26.738Z,10.80
2023-02-19T23:12:04.123Z,11.00
2023-02-19T23:14:32.960Z,11.00
2023-02-19T23:17:02.051Z,8.80
2023-02-19T23:19:30.792Z,7.00
2023-02-19T23:22:00.396Z,7.80
2023-02-19T23:24:29.038Z,9.60
2023-02-19T23:26:59.653Z,11.20
2023-02-19T23:29:30.981Z,11.00
2023-02-19T23:32:00.913Z,8.40
2023-02-19T23:34:29.596Z,10.60
2023-02-19T23:36:59.712Z,8.00
2023-02-19T23:39:28.316Z,12.00
2023-02-19T23:41:58.806Z,11.20
2023-02-19T23:44:27.663Z,11.20
2023-02-19T23:46:58.118Z,11.40
2023-02-19T23:49:26.656Z,8.00
2023-02-19T23:51:55.544Z,8.40
2023-02-19T23:54:24.191Z,11.40
2023-02-19T23:56:53.065Z,11.60
2023-02-19T23:59:21.768Z,10.40
